Terminal Aerodrome Forecast
Issued by NWS Corpus Christi, TX

Home | Current Version | Previous Version | Text Only | Print | Product List | Glossary On
Versions: 1 2 3 4 5 6 7 8 9 10 11 12 13 14 15 16 17
866
FTUS44 KCRP 190721 AAA
TAFVCT
TAF AMD
KVCT 190721Z 1907/2006 34005KT 6SM BR VCSH OVC005
      TEMPO 1908/1912 2SM -SHRA BR OVC004
     FM191500 28005KT P6SM OVC015
     FM192000 24005KT P6SM SCT025 OVC050=

USA.gov is the U.S. government's official web portal to all federal, state and local government web resources and services.